Portada
METAR-TAF:

METAR-TAF

Aeroports :

Al Udeid, Qatar

latitud: 25-07N, longitud: 051-18E, altitud: 42 m

Observació

L'informe es va fer fa 56 minuts, a les 10:00 UTC
Vent 8 kt del Nord/Nord-Oest
Temperatura 25°C
Humitat 34%
Pressió 1019 hPa
Visibilitat: 9000 m
Escasses núvols a una alçada de 5500 ft
calitja

METAR: OTBH 221000Z 34008KT 9000 HZ FEW055 25/08 A3010 RMK AO2A SLP195 WND DATA ESTMD ALSTG/SLP ESTMD $

Hora: 13:56 (10:56 UTC)

Pronòstic

L'informe es va fer fa 2 hores i 56 minuts, a les 08:00 UTC
Pronòstic vàlid del 22 a les 08 UTC al 23 a les 14 UTC
Vent 10 kt del Nord-Oest amb ràfegues de 15 kt
Visibilitat: 9000 m
Escasses núvols a una alçada de 10000 ft
calitja
Evolucionant progressivament
l' 22 a les 19 UTC al 22 a les 20 UTC
Vent 9 kt del Nord/Nord-Oest
Visibilitat: 9000 m
Escasses núvols a una alçada de 15000 ft
calitja

TAF: OTBH 220800Z 2208/2314 31010G15KT 9000 HZ FEW100 QNH3010INS BECMG 2219/2220 33009KT 9000 HZ FEW150 QNH3012INS TX24/2210Z TN16/2300Z

Observacions i pronòstics meteorològics de més de 4000 aeroports (METAR i TAF).

Les estacions disponibles són els punts grocs i vermells al mapa.

Posi el ratolí al punt desitjat per veure el nom de l'estació.

Feu clic per veure les observacions i els pronòstics meteorològics.

Per canviar el mapa: feu clic els botons verds amb una creu de color negre per apropar; al botó verd amb un guió per allunyar la imatge; o en les fletxes verdes per a mapes adjacents.


METAR-TAF: